createdAt,value
2018-08-17T00:00:18.889Z,101046.89
2018-08-17T00:01:23.071Z,101044.41
2018-08-17T00:02:32.671Z,101044.41
2018-08-17T00:03:42.510Z,101042.39
2018-08-17T00:04:46.628Z,101037.19
2018-08-17T00:05:50.491Z,101039.05
2018-08-17T00:06:54.389Z,101041.23
2018-08-17T00:07:58.286Z,101033.30
2018-08-17T00:09:02.452Z,101034.66
2018-08-17T00:10:06.658Z,101028.92
2018-08-17T00:11:11.002Z,101034.03
2018-08-17T00:12:15.270Z,101036.40
2018-08-17T00:13:19.477Z,101029.31
2018-08-17T00:14:23.885Z,101024.62
2018-08-17T00:15:28.053Z,101025.97
2018-08-17T00:16:32.244Z,101027.50
2018-08-17T00:17:36.420Z,101022.63
2018-08-17T00:18:40.734Z,101014.19
2018-08-17T00:19:45.028Z,101018.42
2018-08-17T00:20:49.202Z,101016.56
2018-08-17T00:21:53.375Z,101015.72
2018-08-17T00:22:57.521Z,101017.28
2018-08-17T00:24:01.958Z,101013.73
2018-08-17T00:25:06.258Z,101011.54
2018-08-17T00:26:10.451Z,101011.88
2018-08-17T00:27:14.619Z,101008.84
2018-08-17T00:28:18.775Z,101011.54
2018-08-17T00:29:22.938Z,101008.84
2018-08-17T00:30:27.095Z,101007.48
2018-08-17T00:31:31.270Z,101011.54
2018-08-17T00:32:35.476Z,101006.98
2018-08-17T00:33:39.620Z,101013.23
2018-08-17T00:34:43.804Z,101017.28
2018-08-17T00:35:47.988Z,101013.23
2018-08-17T00:36:52.363Z,101019.98
2018-08-17T00:37:56.523Z,101014.25
2018-08-17T00:39:00.707Z,101017.79
2018-08-17T00:40:05.882Z,101018.30
2018-08-17T00:41:10.071Z,101017.79
2018-08-17T00:42:14.345Z,101015.59
2018-08-17T00:43:18.838Z,101015.59
2018-08-17T00:44:23.032Z,101021.00
2018-08-17T00:45:27.235Z,101017.97
2018-08-17T00:46:31.426Z,101022.35
2018-08-17T00:47:35.749Z,101016.11
2018-08-17T00:48:39.941Z,101020.67
2018-08-17T00:49:44.132Z,101023.37
2018-08-17T00:50:48.364Z,101026.08
2018-08-17T00:51:52.603Z,101034.18
2018-08-17T00:52:56.782Z,101027.13
2018-08-17T00:54:01.013Z,101026.61
2018-08-17T00:55:05.531Z,101031.17
2018-08-17T00:56:09.781Z,101027.13
2018-08-17T00:57:14.175Z,101028.14
2018-08-17T00:58:18.447Z,101024.09
2018-08-17T00:59:22.610Z,101032.53
2018-08-17T01:00:26.802Z,101025.44
2018-08-17T01:01:31.002Z,101030.84
2018-08-17T01:02:35.229Z,101028.14
2018-08-17T01:03:39.694Z,101032.20
2018-08-17T01:04:43.852Z,101029.16
2018-08-17T01:05:48.064Z,101035.41
2018-08-17T01:06:52.376Z,101036.76
2018-08-17T01:07:56.600Z,101034.56
2018-08-17T01:09:00.837Z,101040.17
2018-08-17T01:10:05.307Z,101047.44
2018-08-17T01:11:09.492Z,101056.03
2018-08-17T01:12:13.812Z,101058.94
2018-08-17T01:13:17.996Z,101066.88
2018-08-17T01:14:22.295Z,101068.11
2018-08-17T01:15:26.626Z,101078.78
2018-08-17T01:16:30.781Z,101077.30
2018-08-17T01:17:35.002Z,101080.05
2018-08-17T01:18:39.167Z,101082.47
2018-08-17T01:19:43.414Z,101080.22
2018-08-17T01:20:47.585Z,101081.94
2018-08-17T01:21:51.747Z,101086.03
2018-08-17T01:22:56.071Z,101091.81
2018-08-17T01:24:00.226Z,101098.09
2018-08-17T01:25:04.967Z,101104.72
2018-08-17T01:26:09.162Z,101106.44
2018-08-17T01:27:13.363Z,101108.47
2018-08-17T01:28:17.550Z,101115.93
2018-08-17T01:29:21.923Z,101116.30
2018-08-17T01:30:26.091Z,101117.48
2018-08-17T01:31:30.266Z,101124.44
2018-08-17T01:32:34.438Z,101128.34
2018-08-17T01:33:38.650Z,101125.48
2018-08-17T01:34:42.798Z,101128.38
2018-08-17T01:35:46.971Z,101128.25
2018-08-17T01:36:51.297Z,101129.26
2018-08-17T01:37:55.483Z,101128.41
2018-08-17T01:38:59.683Z,101130.64
2018-08-17T01:40:03.914Z,101131.34
2018-08-17T01:41:08.107Z,101131.68
2018-08-17T01:42:12.289Z,101134.24
2018-08-17T01:43:16.463Z,101139.81
2018-08-17T01:44:20.905Z,101140.52
2018-08-17T01:45:25.072Z,101135.48
2018-08-17T01:46:29.235Z,101135.14
2018-08-17T01:47:33.728Z,101138.52
2018-08-17T01:48:37.882Z,101146.98
2018-08-17T01:49:42.136Z,101140.94
2018-08-17T01:50:46.447Z,101137.59
2018-08-17T01:51:50.604Z,101147.06
2018-08-17T01:52:54.787Z,101138.83
2018-08-17T01:53:58.946Z,101138.66
2018-08-17T01:55:03.264Z,101140.20
2018-08-17T01:56:07.482Z,101139.70
2018-08-17T01:57:11.880Z,101138.37
2018-08-17T01:58:16.074Z,101137.73
2018-08-17T01:59:20.291Z,101139.44
2018-08-17T02:00:24.508Z,101146.70
2018-08-17T02:01:28.698Z,101150.61
2018-08-17T02:02:32.871Z,101148.44
2018-08-17T02:03:37.063Z,101154.70
2018-08-17T02:04:41.247Z,101151.02
2018-08-17T02:05:45.484Z,101152.37
2018-08-17T02:06:49.659Z,101156.47
2018-08-17T02:07:54.087Z,101158.69
2018-08-17T02:08:58.271Z,101156.16
2018-08-17T02:10:02.475Z,101163.39
2018-08-17T02:11:06.854Z,101160.05
2018-08-17T02:12:11.023Z,101161.25
2018-08-17T02:13:19.482Z,101167.31
2018-08-17T02:14:23.687Z,101165.44
2018-08-17T02:15:27.974Z,101168.33
2018-08-17T02:16:32.147Z,101167.48
2018-08-17T02:17:36.408Z,101172.03
2018-08-17T02:18:40.694Z,101179.11
2018-08-17T02:19:44.834Z,101184.16
2018-08-17T02:20:49.009Z,101190.56
2018-08-17T02:21:53.205Z,101202.69
2018-08-17T02:22:57.570Z,101195.30
2018-08-17T02:24:01.724Z,101193.10
2018-08-17T02:25:05.951Z,101204.73
2018-08-17T02:26:10.116Z,101194.11
2018-08-17T02:27:14.334Z,101194.64
2018-08-17T02:28:18.487Z,101197.00
2018-08-17T02:29:22.703Z,101194.80
2018-08-17T02:30:26.861Z,101201.05
2018-08-17T02:31:31.085Z,101202.20
2018-08-17T02:32:35.278Z,101204.39
2018-08-17T02:33:39.604Z,101207.09
2018-08-17T02:34:43.872Z,101201.19
2018-08-17T02:35:50.335Z,101206.08
2018-08-17T02:36:54.504Z,101206.42
2018-08-17T02:37:58.742Z,101200.84
2018-08-17T02:39:03.150Z,101198.48
2018-08-17T02:40:07.371Z,101199.98
2018-08-17T02:41:11.766Z,101191.39
2018-08-17T02:42:19.182Z,101201.00
2018-08-17T02:43:23.380Z,101194.61
2018-08-17T02:44:28.043Z,101205.73
2018-08-17T02:45:32.219Z,101203.54
2018-08-17T02:46:36.440Z,101211.94
2018-08-17T02:47:40.603Z,101196.61
2018-08-17T02:48:44.799Z,101200.66
2018-08-17T02:49:48.989Z,101198.13
2018-08-17T02:50:53.463Z,101200.83
2018-08-17T02:51:57.707Z,101204.88
2018-08-17T02:53:01.887Z,101194.91
2018-08-17T02:54:07.019Z,101197.09
2018-08-17T02:55:11.195Z,101199.63
2018-08-17T02:56:15.366Z,101199.13
2018-08-17T02:57:19.552Z,101201.29
2018-08-17T02:58:23.691Z,101200.78
2018-08-17T02:59:27.890Z,101199.44
2018-08-17T03:00:32.080Z,101195.23
2018-08-17T03:01:36.280Z,101186.13
2018-08-17T03:02:40.543Z,101183.44
2018-08-17T03:03:44.721Z,101182.40
2018-08-17T03:04:49.023Z,101176.70
2018-08-17T03:05:53.195Z,101180.74
2018-08-17T03:06:57.388Z,101181.55
2018-08-17T03:08:01.613Z,101186.44
2018-08-17T03:09:07.831Z,101183.59
2018-08-17T03:10:12.027Z,101185.78
2018-08-17T03:11:16.184Z,101183.89
2018-08-17T03:12:20.455Z,101178.00
2018-08-17T03:13:24.588Z,101180.02
2018-08-17T03:14:28.792Z,101170.90
2018-08-17T03:15:33.159Z,101169.89
2018-08-17T03:16:37.353Z,101168.03
2018-08-17T03:17:41.526Z,101170.88
2018-08-17T03:18:45.683Z,101169.88
2018-08-17T03:19:49.978Z,101173.07
2018-08-17T03:20:54.183Z,101175.61
2018-08-17T03:21:58.382Z,101176.11
2018-08-17T03:23:02.551Z,101178.47
2018-08-17T03:24:06.936Z,101178.97
2018-08-17T03:25:11.106Z,101183.36
2018-08-17T03:26:16.091Z,101188.41
2018-08-17T03:27:20.568Z,101189.61
2018-08-17T03:28:24.738Z,101188.28
2018-08-17T03:29:28.971Z,101185.47
2018-08-17T03:30:33.128Z,101187.00
2018-08-17T03:31:37.337Z,101175.44
2018-08-17T03:32:41.601Z,101171.11
2018-08-17T03:33:45.782Z,101172.47
2018-08-17T03:34:50.031Z,101172.17
2018-08-17T03:35:54.522Z,101165.11
2018-08-17T03:36:58.883Z,101159.41
2018-08-17T03:38:03.192Z,101156.03
2018-08-17T03:39:08.783Z,101150.34
2018-08-17T03:40:12.934Z,101150.70
2018-08-17T03:41:17.186Z,101149.70
2018-08-17T03:42:21.414Z,101149.70
2018-08-17T03:43:25.699Z,101161.48
2018-08-17T03:44:30.021Z,101156.44
2018-08-17T03:45:34.214Z,101157.48
2018-08-17T03:46:38.530Z,101155.29
2018-08-17T03:47:42.703Z,101156.13
2018-08-17T03:48:46.855Z,101151.74
2018-08-17T03:49:51.031Z,101143.32
2018-08-17T03:50:56.107Z,101150.70
2018-08-17T03:52:00.505Z,101141.28
2018-08-17T03:53:04.679Z,101149.02
2018-08-17T03:54:08.875Z,101145.31
2018-08-17T03:55:13.628Z,101151.20
2018-08-17T03:56:17.809Z,101155.43
2018-08-17T03:57:21.971Z,101154.39
2018-08-17T03:58:26.274Z,101160.62
2018-08-17T03:59:31.669Z,101154.73
2018-08-17T04:00:37.139Z,101152.39
2018-08-17T04:01:41.298Z,101163.81
2018-08-17T04:02:45.492Z,101176.94
2018-08-17T04:03:49.668Z,101181.31
2018-08-17T04:04:53.955Z,101186.02
2018-08-17T04:05:58.144Z,101201.83
2018-08-17T04:07:02.412Z,101210.59
2018-08-17T04:08:06.730Z,101221.52
2018-08-17T04:09:11.832Z,101231.11
2018-08-17T04:10:16.011Z,101245.23
2018-08-17T04:11:20.200Z,101248.93
2018-08-17T04:12:24.358Z,101249.11
2018-08-17T04:13:28.590Z,101257.00
2018-08-17T04:14:32.991Z,101255.30
2018-08-17T04:15:37.523Z,101257.66
2018-08-17T04:16:41.692Z,101260.34
2018-08-17T04:17:45.828Z,101266.23
2018-08-17T04:18:54.576Z,101266.57
2018-08-17T04:19:58.813Z,101270.58
2018-08-17T04:21:02.979Z,101265.40
2018-08-17T04:22:07.305Z,101258.97
2018-08-17T04:23:11.444Z,101257.96
2018-08-17T04:24:15.590Z,101256.42
2018-08-17T04:25:19.864Z,101260.30
2018-08-17T04:26:24.146Z,101256.10
2018-08-17T04:27:28.387Z,101264.84
2018-08-17T04:28:32.563Z,101271.92
2018-08-17T04:29:36.758Z,101270.05
2018-08-17T04:30:40.969Z,101283.87
2018-08-17T04:31:45.125Z,101285.22
2018-08-17T04:32:49.375Z,101284.71
2018-08-17T04:33:53.595Z,101296.00
2018-08-17T04:34:57.804Z,101296.70
2018-08-17T04:36:01.989Z,101306.98
2018-08-17T04:37:06.156Z,101311.69
2018-08-17T04:38:10.310Z,101308.48
2018-08-17T04:39:14.472Z,101320.45
2018-08-17T04:40:18.679Z,101318.08
2018-08-17T04:41:22.864Z,101314.22
2018-08-17T04:42:27.591Z,101315.23
2018-08-17T04:43:31.903Z,101310.68
2018-08-17T04:44:36.361Z,101310.84
2018-08-17T04:45:40.516Z,101303.44
2018-08-17T04:46:44.896Z,101295.66
2018-08-17T04:47:49.086Z,101299.70
2018-08-17T04:48:53.630Z,101305.09
2018-08-17T04:49:57.775Z,101304.94
2018-08-17T04:51:01.938Z,101293.30
2018-08-17T04:52:06.194Z,101298.36
2018-08-17T04:53:10.339Z,101299.70
2018-08-17T04:54:14.509Z,101305.09
2018-08-17T04:55:18.772Z,101296.70
2018-08-17T04:56:23.117Z,101297.20
2018-08-17T04:57:27.425Z,101296.03
2018-08-17T04:58:31.849Z,101296.57
2018-08-17T04:59:36.104Z,101290.87
2018-08-17T05:00:40.275Z,101293.42
2018-08-17T05:01:44.440Z,101288.38
2018-08-17T05:02:48.606Z,101292.29
2018-08-17T05:03:52.878Z,101284.20
2018-08-17T05:04:57.033Z,101281.34
2018-08-17T05:06:01.180Z,101270.89
2018-08-17T05:07:05.350Z,101276.44
2018-08-17T05:08:09.549Z,101281.81
2018-08-17T05:09:13.716Z,101275.23
2018-08-17T05:10:17.846Z,101279.93
2018-08-17T05:11:22.197Z,101280.23
2018-08-17T05:12:26.534Z,101271.46
2018-08-17T05:13:30.810Z,101268.91
2018-08-17T05:14:35.116Z,101276.26
2018-08-17T05:15:39.243Z,101294.22
2018-08-17T05:16:43.497Z,101309.97
2018-08-17T05:17:47.648Z,101318.36
2018-08-17T05:18:51.990Z,101319.17
2018-08-17T05:19:56.224Z,101316.45
2018-08-17T05:21:00.365Z,101313.59
2018-08-17T05:22:04.723Z,101311.94
2018-08-17T05:23:08.876Z,101310.88
2018-08-17T05:24:13.767Z,101314.41
2018-08-17T05:25:17.918Z,101314.09
2018-08-17T05:26:22.102Z,101319.64
2018-08-17T05:27:26.239Z,101323.00
2018-08-17T05:28:30.375Z,101327.20
2018-08-17T05:29:34.567Z,101324.38
2018-08-17T05:30:38.718Z,101326.39
2018-08-17T05:31:43.327Z,101328.44
2018-08-17T05:32:47.486Z,101324.41
2018-08-17T05:33:52.041Z,101332.47
2018-08-17T05:34:56.196Z,101327.94
2018-08-17T05:36:00.393Z,101320.20
2018-08-17T05:37:05.077Z,101321.55
2018-08-17T05:38:09.268Z,101313.66
2018-08-17T05:39:13.399Z,101314.33
2018-08-17T05:40:17.579Z,101324.25
2018-08-17T05:41:21.729Z,101328.64
2018-08-17T05:42:25.859Z,101327.79
2018-08-17T05:43:30.007Z,101340.23
2018-08-17T05:44:34.158Z,101339.20
2018-08-17T05:45:38.660Z,101356.36
2018-08-17T05:46:42.911Z,101365.97
2018-08-17T05:47:47.113Z,101371.17
2018-08-17T05:48:51.351Z,101384.47
2018-08-17T05:49:55.536Z,101382.77
2018-08-17T05:50:59.731Z,101395.22
2018-08-17T05:52:04.037Z,101390.98
2018-08-17T05:53:08.261Z,101389.81
2018-08-17T05:54:12.467Z,101393.00
2018-08-17T05:55:16.671Z,101395.33
2018-08-17T05:56:20.909Z,101400.56
2018-08-17T05:57:25.108Z,101406.12
2018-08-17T05:58:29.283Z,101401.94
2018-08-17T05:59:33.654Z,101402.96
2018-08-17T06:00:37.919Z,101397.76
2018-08-17T06:01:42.114Z,101389.05
2018-08-17T06:02:46.552Z,101390.39
2018-08-17T06:03:50.703Z,101395.98
2018-08-17T06:04:55.060Z,101387.70
2018-08-17T06:05:59.422Z,101388.23
2018-08-17T06:07:03.640Z,101379.64
2018-08-17T06:08:07.973Z,101381.69
2018-08-17T06:09:12.198Z,101372.45
2018-08-17T06:10:16.543Z,101368.27
2018-08-17T06:11:20.949Z,101379.34
2018-08-17T06:12:24.948Z,101366.92
2018-08-17T06:13:29.192Z,101363.04
2018-08-17T06:14:33.362Z,101366.58
2018-08-17T06:15:37.578Z,101354.83
2018-08-17T06:16:41.779Z,101356.48
2018-08-17T06:17:45.989Z,101364.23
2018-08-17T06:18:50.174Z,101356.37
2018-08-17T06:19:54.716Z,101345.43
2018-08-17T06:20:58.887Z,101335.17
2018-08-17T06:22:03.066Z,101323.56
2018-08-17T06:23:07.329Z,101326.09
2018-08-17T06:24:11.626Z,101328.61
2018-08-17T06:25:15.934Z,101345.91
2018-08-17T06:26:20.086Z,101345.70
2018-08-17T06:27:24.366Z,101343.70
2018-08-17T06:28:28.823Z,101338.32
2018-08-17T06:29:32.999Z,101336.27
2018-08-17T06:30:37.203Z,101338.61
2018-08-17T06:31:41.489Z,101332.56
2018-08-17T06:32:45.907Z,101327.83
2018-08-17T06:33:50.139Z,101330.38
2018-08-17T06:34:54.315Z,101333.91
2018-08-17T06:35:58.551Z,101343.81
2018-08-17T06:37:02.817Z,101349.36
2018-08-17T06:38:07.009Z,101351.41
2018-08-17T06:39:12.020Z,101361.67
2018-08-17T06:40:16.239Z,101361.34
2018-08-17T06:41:20.442Z,101359.16
2018-08-17T06:42:24.650Z,101359.86
2018-08-17T06:43:29.057Z,101362.05
2018-08-17T06:44:33.264Z,101360.70
2018-08-17T06:45:37.468Z,101366.59
2018-08-17T06:46:41.936Z,101362.89
2018-08-17T06:47:46.110Z,101357.71
2018-08-17T06:48:50.300Z,101362.41
2018-08-17T06:49:54.802Z,101361.91
2018-08-17T06:50:59.172Z,101365.95
2018-08-17T06:52:03.215Z,101359.55
2018-08-17T06:53:07.395Z,101367.64
2018-08-17T06:54:11.559Z,101352.00
2018-08-17T06:55:15.783Z,101352.84
2018-08-17T06:56:20.032Z,101351.19
2018-08-17T06:57:24.303Z,101346.62
2018-08-17T06:58:28.458Z,101341.44
2018-08-17T06:59:32.783Z,101341.76
2018-08-17T07:00:37.058Z,101336.38
2018-08-17T07:01:41.553Z,101339.42
2018-08-17T07:02:46.654Z,101337.72
2018-08-17T07:03:50.839Z,101338.08
2018-08-17T07:04:55.017Z,101342.45
2018-08-17T07:05:59.394Z,101341.78
2018-08-17T07:07:03.666Z,101340.95
2018-08-17T07:08:07.831Z,101332.38
2018-08-17T07:09:12.118Z,101336.59
2018-08-17T07:10:16.223Z,101334.74
2018-08-17T07:11:20.441Z,101342.48
2018-08-17T07:12:24.667Z,101338.47
2018-08-17T07:13:28.827Z,101340.33
2018-08-17T07:14:33.060Z,101337.30
2018-08-17T07:15:37.442Z,101342.50
2018-08-17T07:16:41.767Z,101339.48
2018-08-17T07:17:45.981Z,101335.80
2018-08-17T07:18:50.665Z,101328.92
2018-08-17T07:19:54.900Z,101337.66
2018-08-17T07:20:59.039Z,101343.88
2018-08-17T07:22:03.719Z,101345.55
2018-08-17T07:23:07.920Z,101355.14
2018-08-17T07:24:12.132Z,101356.64
2018-08-17T07:25:16.335Z,101359.33
2018-08-17T07:26:20.499Z,101366.59
2018-08-17T07:27:24.707Z,101360.86
2018-08-17T07:28:29.053Z,101358.00
2018-08-17T07:29:33.210Z,101361.69
2018-08-17T07:30:37.404Z,101359.67
2018-08-17T07:31:42.271Z,101355.94
2018-08-17T07:32:46.455Z,101359.66
2018-08-17T07:33:50.620Z,101367.73
2018-08-17T07:34:54.779Z,101361.16
2018-08-17T07:35:58.944Z,101362.68
2018-08-17T07:37:03.103Z,101355.95
2018-08-17T07:38:07.312Z,101351.07
2018-08-17T07:39:11.498Z,101360.48
2018-08-17T07:40:15.966Z,101357.30
2018-08-17T07:41:20.295Z,101352.23
2018-08-17T07:42:24.475Z,101354.80
2018-08-17T07:43:28.674Z,101363.70
2018-08-17T07:44:32.880Z,101362.02
2018-08-17T07:45:37.479Z,101361.38
2018-08-17T07:46:41.910Z,101366.08
2018-08-17T07:47:46.157Z,101367.77
2018-08-17T07:48:50.300Z,101372.47
2018-08-17T07:49:54.437Z,101374.66
2018-08-17T07:50:58.579Z,101373.83
2018-08-17T07:52:02.771Z,101380.23
2018-08-17T07:53:06.943Z,101381.24
2018-08-17T07:54:11.122Z,101378.22
2018-08-17T07:55:15.566Z,101394.53
2018-08-17T07:56:19.740Z,101405.00
2018-08-17T07:57:23.904Z,101408.36
2018-08-17T07:58:28.106Z,101413.24
2018-08-17T07:59:32.335Z,101407.36
2018-08-17T08:00:36.816Z,101401.45
2018-08-17T08:01:41.157Z,101401.67
2018-08-17T08:02:45.462Z,101401.99
2018-08-17T08:03:49.582Z,101401.34
2018-08-17T08:04:54.134Z,101398.15
2018-08-17T08:05:58.298Z,101400.51
2018-08-17T08:07:02.471Z,101401.02
2018-08-17T08:08:07.001Z,101407.91
2018-08-17T08:09:11.576Z,101405.89
2018-08-17T08:10:15.762Z,101406.75
2018-08-17T08:11:19.940Z,101407.57
2018-08-17T08:12:24.099Z,101404.39
2018-08-17T08:13:28.388Z,101403.71
2018-08-17T08:14:32.599Z,101409.27
2018-08-17T08:15:36.835Z,101412.63
2018-08-17T08:16:41.085Z,101415.99
2018-08-17T08:17:45.428Z,101417.00
2018-08-17T08:18:49.617Z,101421.40
2018-08-17T08:20:05.079Z,101429.14
2018-08-17T08:21:09.281Z,101425.10
2018-08-17T08:22:13.548Z,101430.14
2018-08-17T08:23:24.618Z,101428.30
2018-08-17T08:24:28.860Z,101428.14
2018-08-17T08:25:33.023Z,101436.38
2018-08-17T08:26:37.235Z,101439.58
2018-08-17T08:27:41.535Z,101437.56
2018-08-17T08:28:45.764Z,101444.30
2018-08-17T08:29:50.047Z,101446.16
2018-08-17T08:30:54.732Z,101448.19
2018-08-17T08:31:59.015Z,101451.88
2018-08-17T08:33:03.343Z,101446.33
2018-08-17T08:34:07.691Z,101448.33
2018-08-17T08:35:11.848Z,101452.56
2018-08-17T08:36:16.039Z,101459.98
2018-08-17T08:37:20.695Z,101457.44
2018-08-17T08:38:24.918Z,101456.78
2018-08-17T08:39:29.318Z,101454.73
2018-08-17T08:40:33.456Z,101462.66
2018-08-17T08:41:37.694Z,101455.06
2018-08-17T08:42:42.038Z,101459.44
2018-08-17T08:43:46.212Z,101462.15
2018-08-17T08:44:50.358Z,101458.75
2018-08-17T08:45:54.615Z,101453.38
2018-08-17T08:46:59.075Z,101460.94
2018-08-17T08:48:03.866Z,101458.08
2018-08-17T08:49:08.075Z,101462.42
2018-08-17T08:50:12.487Z,101463.60
2018-08-17T08:51:16.635Z,101471.86
2018-08-17T08:52:20.916Z,101478.39
2018-08-17T08:53:25.064Z,101478.23
2018-08-17T08:54:29.228Z,101479.26
2018-08-17T08:55:33.393Z,101480.25
2018-08-17T08:56:37.634Z,101481.59
2018-08-17T08:57:41.788Z,101482.59
2018-08-17T08:58:45.979Z,101484.59
2018-08-17T08:59:50.127Z,101496.36
2018-08-17T09:00:54.304Z,101486.91
2018-08-17T09:01:58.483Z,101491.45
2018-08-17T09:03:02.619Z,101489.61
2018-08-17T09:04:07.611Z,101491.95
2018-08-17T09:05:11.787Z,101487.75
2018-08-17T09:06:15.993Z,101497.17
2018-08-17T09:07:20.176Z,101495.47
2018-08-17T09:08:24.409Z,101493.63
2018-08-17T09:09:28.601Z,101497.17
2018-08-17T09:10:32.780Z,101499.68
2018-08-17T09:11:37.036Z,101496.98
2018-08-17T09:12:41.216Z,101493.80
2018-08-17T09:13:45.498Z,101495.64
2018-08-17T09:14:49.637Z,101495.82
2018-08-17T09:15:53.973Z,101497.67
2018-08-17T09:16:58.135Z,101507.41
2018-08-17T09:18:02.352Z,101503.90
2018-08-17T09:19:06.696Z,101510.12
2018-08-17T09:20:13.063Z,101506.78
2018-08-17T09:21:17.199Z,101508.82
2018-08-17T09:22:21.352Z,101503.48
2018-08-17T09:23:25.539Z,101507.20
2018-08-17T09:24:29.697Z,101506.87
2018-08-17T09:25:33.875Z,101504.34
2018-08-17T09:26:38.015Z,101510.39
2018-08-17T09:27:42.553Z,101502.52
2018-08-17T09:28:46.699Z,101509.42
2018-08-17T09:29:50.963Z,101507.89
2018-08-17T09:30:55.131Z,101512.13
2018-08-17T09:31:59.271Z,101517.34
2018-08-17T09:33:03.406Z,101516.66
2018-08-17T09:34:07.904Z,101507.92
2018-08-17T09:35:13.186Z,101510.11
2018-08-17T09:36:17.391Z,101515.67
2018-08-17T09:37:21.792Z,101512.00
2018-08-17T09:38:25.934Z,101513.17
2018-08-17T09:39:30.162Z,101503.58
2018-08-17T09:40:34.316Z,101511.67
2018-08-17T09:41:38.551Z,101510.83
2018-08-17T09:42:42.658Z,101511.34
2018-08-17T09:43:46.778Z,101503.26
2018-08-17T09:44:50.920Z,101509.31
2018-08-17T09:45:55.064Z,101508.16
2018-08-17T09:46:59.535Z,101502.27
2018-08-17T09:48:03.700Z,101499.73
2018-08-17T09:49:07.864Z,101501.75
2018-08-17T09:50:13.684Z,101506.69
2018-08-17T09:51:17.999Z,101507.51
2018-08-17T09:52:22.187Z,101510.22
2018-08-17T09:53:26.983Z,101505.98
2018-08-17T09:54:31.163Z,101507.00
2018-08-17T09:55:35.315Z,101499.56
2018-08-17T09:56:39.504Z,101506.12
2018-08-17T09:57:43.765Z,101508.98
2018-08-17T09:58:47.852Z,101502.88
2018-08-17T09:59:52.119Z,101502.03
2018-08-17T10:01:01.579Z,101500.15
2018-08-17T10:02:11.920Z,101500.14
2018-08-17T10:03:21.320Z,101492.04
2018-08-17T10:04:30.941Z,101486.98
2018-08-17T10:05:39.638Z,101495.39
2018-08-17T10:06:49.299Z,101486.98
2018-08-17T10:07:58.818Z,101492.86
2018-08-17T10:09:08.449Z,101493.86
2018-08-17T10:10:18.438Z,101492.64
2018-08-17T10:11:22.595Z,101495.63
2018-08-17T10:12:26.911Z,101497.97
2018-08-17T10:13:31.195Z,101496.94
2018-08-17T10:14:35.499Z,101501.45
2018-08-17T10:15:40.085Z,101509.38
2018-08-17T10:16:44.319Z,101510.38
2018-08-17T10:17:48.467Z,101510.36
2018-08-17T10:18:52.675Z,101516.41
2018-08-17T10:19:57.036Z,101516.76
2018-08-17T10:21:01.452Z,101519.77
2018-08-17T10:22:06.174Z,101512.34
2018-08-17T10:23:15.488Z,101511.98
2018-08-17T10:24:20.303Z,101512.28
2018-08-17T10:25:25.726Z,101518.53
2018-08-17T10:26:29.925Z,101509.27
2018-08-17T10:27:34.105Z,101513.98
2018-08-17T10:28:38.466Z,101509.45
2018-08-17T10:29:42.625Z,101509.16
2018-08-17T10:30:46.848Z,101518.13
2018-08-17T10:31:51.453Z,101511.73
2018-08-17T10:32:58.673Z,101510.39
2018-08-17T10:34:03.027Z,101518.51
2018-08-17T10:35:09.015Z,101512.11
2018-08-17T10:36:13.220Z,101512.81
2018-08-17T10:37:17.467Z,101513.81
2018-08-17T10:38:21.732Z,101515.36
2018-08-17T10:39:25.882Z,101518.06
2018-08-17T10:40:30.092Z,101513.67
2018-08-17T10:41:34.457Z,101512.47
2018-08-17T10:42:38.619Z,101513.30
2018-08-17T10:43:42.788Z,101513.28
2018-08-17T10:44:46.969Z,101511.38
2018-08-17T10:45:51.198Z,101511.52
2018-08-17T10:46:55.380Z,101514.36
2018-08-17T10:47:59.942Z,101516.05
2018-08-17T10:49:04.168Z,101515.05
2018-08-17T10:50:13.628Z,101513.02
2018-08-17T10:51:17.759Z,101522.52
2018-08-17T10:52:21.923Z,101522.70
2018-08-17T10:53:28.774Z,101525.96
2018-08-17T10:54:32.956Z,101526.98
2018-08-17T10:55:42.920Z,101527.02
2018-08-17T10:56:47.079Z,101526.34
2018-08-17T10:57:51.454Z,101529.03
2018-08-17T10:58:55.602Z,101529.23
2018-08-17T10:59:59.923Z,101525.53
2018-08-17T11:01:04.112Z,101530.43
2018-08-17T11:02:08.286Z,101531.59
2018-08-17T11:03:12.470Z,101542.39
2018-08-17T11:04:16.624Z,101529.39
2018-08-17T11:05:20.806Z,101534.14
2018-08-17T11:06:24.993Z,101535.99
2018-08-17T11:07:34.462Z,101537.19
2018-08-17T11:08:38.983Z,101534.50
2018-08-17T11:09:43.240Z,101535.70
2018-08-17T11:10:47.418Z,101543.64
2018-08-17T11:11:51.575Z,101535.20
2018-08-17T11:12:55.787Z,101534.70
2018-08-17T11:13:59.965Z,101538.75
2018-08-17T11:15:04.839Z,101540.61
2018-08-17T11:16:09.086Z,101543.31
2018-08-17T11:17:13.220Z,101538.60
2018-08-17T11:18:17.435Z,101538.26
2018-08-17T11:19:21.799Z,101541.45
2018-08-17T11:20:25.943Z,101539.11
2018-08-17T11:21:30.231Z,101548.05
2018-08-17T11:22:34.852Z,101545.16
2018-08-17T11:23:39.176Z,101545.00
2018-08-17T11:24:43.484Z,101547.00
2018-08-17T11:25:47.649Z,101551.05
2018-08-17T11:26:51.893Z,101546.99
2018-08-17T11:27:56.061Z,101548.30
2018-08-17T11:29:00.588Z,101543.94
2018-08-17T11:30:07.640Z,101546.78
2018-08-17T11:31:11.848Z,101549.48
2018-08-17T11:32:15.991Z,101549.63
2018-08-17T11:33:24.591Z,101546.42
2018-08-17T11:34:28.831Z,101553.68
2018-08-17T11:35:32.973Z,101545.23
2018-08-17T11:36:37.198Z,101548.09
2018-08-17T11:37:41.379Z,101546.92
2018-08-17T11:38:45.527Z,101546.22
2018-08-17T11:39:54.715Z,101546.03
2018-08-17T11:40:58.868Z,101544.52
2018-08-17T11:42:03.013Z,101550.41
2018-08-17T11:43:07.222Z,101555.80
2018-08-17T11:44:14.687Z,101560.00
2018-08-17T11:45:20.391Z,101556.30
2018-08-17T11:46:24.634Z,101560.34
2018-08-17T11:47:28.860Z,101554.95
2018-08-17T11:48:35.034Z,101552.39
2018-08-17T11:49:39.218Z,101559.99
2018-08-17T11:50:43.430Z,101561.66
2018-08-17T11:51:47.618Z,101564.05
2018-08-17T11:52:53.021Z,101564.34
2018-08-17T11:53:57.304Z,101559.59
2018-08-17T11:55:01.706Z,101563.31
2018-08-17T11:56:05.928Z,101569.72
2018-08-17T11:57:10.180Z,101565.32
2018-08-17T11:58:14.363Z,101564.33
2018-08-17T11:59:18.615Z,101569.05
2018-08-17T12:00:22.798Z,101568.41
2018-08-17T12:01:27.402Z,101558.66
2018-08-17T12:02:31.571Z,101567.11
2018-08-17T12:03:35.755Z,101564.06
2018-08-17T12:04:41.064Z,101571.18
2018-08-17T12:05:45.215Z,101570.48
2018-08-17T12:06:49.369Z,101575.22
2018-08-17T12:07:53.557Z,101570.13
2018-08-17T12:08:57.769Z,101571.66
2018-08-17T12:10:04.675Z,101573.16
2018-08-17T12:11:08.847Z,101563.00
2018-08-17T12:12:13.151Z,101565.04
2018-08-17T12:13:17.664Z,101565.04
2018-08-17T12:14:21.802Z,101568.39
2018-08-17T12:15:25.972Z,101565.53